sensor_id;sensor_type;location;lat;lon;timestamp;pressure;altitude;pressure_sealevel;temperature;humidity
50057;BME280;36875;49.468;11.200;2023-02-20T00:00:29;98810.63;;;25.02;36.81
50057;BME280;36875;49.468;11.200;2023-02-20T00:02:55;98805.44;;;25.00;36.77
50057;BME280;36875;49.468;11.200;2023-02-20T00:05:21;98802.50;;;24.88;36.77
50057;BME280;36875;49.468;11.200;2023-02-20T00:07:48;98798.16;;;24.87;36.72
50057;BME280;36875;49.468;11.200;2023-02-20T00:10:14;98802.16;;;24.81;36.94
50057;BME280;36875;49.468;11.200;2023-02-20T00:12:40;98805.88;;;24.68;37.11
50057;BME280;36875;49.468;11.200;2023-02-20T00:15:07;98808.16;;;24.74;37.33
50057;BME280;36875;49.468;11.200;2023-02-20T00:17:32;98808.31;;;24.69;37.01
50057;BME280;36875;49.468;11.200;2023-02-20T00:19:58;98807.16;;;24.70;37.33
50057;BME280;36875;49.468;11.200;2023-02-20T00:22:24;98807.81;;;24.67;36.80
50057;BME280;36875;49.468;11.200;2023-02-20T00:24:54;98807.63;;;24.55;37.12
50057;BME280;36875;49.468;11.200;2023-02-20T00:27:20;98816.00;;;24.50;37.42
50057;BME280;36875;49.468;11.200;2023-02-20T00:29:45;98809.50;;;24.46;37.50
50057;BME280;36875;49.468;11.200;2023-02-20T00:32:11;98812.88;;;24.42;37.53
50057;BME280;36875;49.468;11.200;2023-02-20T00:34:37;98818.41;;;24.42;37.39
50057;BME280;36875;49.468;11.200;2023-02-20T00:37:03;98824.72;;;24.43;37.29
50057;BME280;36875;49.468;11.200;2023-02-20T00:39:28;98827.75;;;24.33;37.41
50057;BME280;36875;49.468;11.200;2023-02-20T00:41:57;98819.81;;;24.22;37.93
50057;BME280;36875;49.468;11.200;2023-02-20T00:44:23;98822.22;;;24.24;37.63
50057;BME280;36875;49.468;11.200;2023-02-20T00:46:49;98825.44;;;24.26;37.57
50057;BME280;36875;49.468;11.200;2023-02-20T00:49:14;98820.25;;;24.16;37.83
50057;BME280;36875;49.468;11.200;2023-02-20T00:51:40;98821.69;;;24.13;38.04
50057;BME280;36875;49.468;11.200;2023-02-20T00:54:05;98820.69;;;24.09;37.82
50057;BME280;36875;49.468;11.200;2023-02-20T00:56:31;98820.19;;;24.07;37.96
50057;BME280;36875;49.468;11.200;2023-02-20T00:58:58;98806.16;;;24.09;37.82
50057;BME280;36875;49.468;11.200;2023-02-20T01:01:23;98806.28;;;24.03;37.74
50057;BME280;36875;49.468;11.200;2023-02-20T01:03:49;98809.50;;;23.97;38.12
50057;BME280;36875;49.468;11.200;2023-02-20T01:06:15;98798.13;;;23.90;37.85
50057;BME280;36875;49.468;11.200;2023-02-20T01:08:40;98811.88;;;23.90;38.09
50057;BME280;36875;49.468;11.200;2023-02-20T01:11:06;98807.31;;;23.85;38.17
50057;BME280;36875;49.468;11.200;2023-02-20T01:13:31;98805.81;;;23.79;38.42
50057;BME280;36875;49.468;11.200;2023-02-20T01:15:58;98805.94;;;23.74;38.31
50057;BME280;36875;49.468;11.200;2023-02-20T01:18:24;98806.06;;;23.68;38.42
50057;BME280;36875;49.468;11.200;2023-02-20T01:20:49;98809.13;;;23.67;38.35
50057;BME280;36875;49.468;11.200;2023-02-20T01:23:15;98812.81;;;23.62;38.53
50057;BME280;36875;49.468;11.200;2023-02-20T01:25:40;98816.06;;;23.64;38.42
50057;BME280;36875;49.468;11.200;2023-02-20T01:28:05;98817.50;;;23.62;38.37
50057;BME280;36875;49.468;11.200;2023-02-20T01:30:31;98814.25;;;23.60;38.42
50057;BME280;36875;49.468;11.200;2023-02-20T01:32:58;98811.00;;;23.58;38.43
50057;BME280;36875;49.468;11.200;2023-02-20T01:35:23;98802.38;;;23.51;38.46
50057;BME280;36875;49.468;11.200;2023-02-20T01:37:49;98804.94;;;23.47;38.50
50057;BME280;36875;49.468;11.200;2023-02-20T01:40:16;98800.91;;;23.44;38.56
50057;BME280;36875;49.468;11.200;2023-02-20T01:42:42;98812.19;;;23.43;38.57
50057;BME280;36875;49.468;11.200;2023-02-20T01:45:15;98808.47;;;23.39;38.62
50057;BME280;36875;49.468;11.200;2023-02-20T01:47:41;98817.44;;;23.31;38.63
50057;BME280;36875;49.468;11.200;2023-02-20T01:50:08;98816.63;;;23.30;38.73
50057;BME280;36875;49.468;11.200;2023-02-20T01:52:35;98802.19;;;23.24;38.59
50057;BME280;36875;49.468;11.200;2023-02-20T01:55:03;98807.50;;;23.21;38.78
50057;BME280;36875;49.468;11.200;2023-02-20T01:57:32;98805.56;;;23.21;38.85
50057;BME280;36875;49.468;11.200;2023-02-20T02:00:03;98800.91;;;23.22;38.70
50057;BME280;36875;49.468;11.200;2023-02-20T02:02:32;98792.47;;;23.18;38.76
50057;BME280;36875;49.468;11.200;2023-02-20T02:04:59;98786.59;;;23.11;38.81
50057;BME280;36875;49.468;11.200;2023-02-20T02:07:28;98790.47;;;23.10;38.89
50057;BME280;36875;49.468;11.200;2023-02-20T02:09:57;98783.84;;;23.11;38.73
50057;BME280;36875;49.468;11.200;2023-02-20T02:12:24;98789.47;;;23.06;38.84
50057;BME280;36875;49.468;11.200;2023-02-20T02:14:50;98787.03;;;23.04;38.61
50057;BME280;36875;49.468;11.200;2023-02-20T02:17:27;98789.03;;;22.99;38.83
50057;BME280;36875;49.468;11.200;2023-02-20T02:20:14;98782.84;;;22.93;38.95
50057;BME280;36875;49.468;11.200;2023-02-20T02:23:29;98790.00;;;22.94;38.95
50057;BME280;36875;49.468;11.200;2023-02-20T02:26:04;98794.44;;;22.90;38.94
50057;BME280;36875;49.468;11.200;2023-02-20T02:28:55;98801.06;;;22.89;38.91
50057;BME280;36875;49.468;11.200;2023-02-20T02:31:53;98796.19;;;22.86;38.93
50057;BME280;36875;49.468;11.200;2023-02-20T02:35:01;98779.53;;;22.82;38.87
50057;BME280;36875;49.468;11.200;2023-02-20T02:37:33;98778.53;;;22.78;39.03
50057;BME280;36875;49.468;11.200;2023-02-20T02:40:07;98777.53;;;22.74;39.00
50057;BME280;36875;49.468;11.200;2023-02-20T02:42:41;98777.34;;;22.70;39.17
50057;BME280;36875;49.468;11.200;2023-02-20T02:45:13;98774.91;;;22.69;39.30
50057;BME280;36875;49.468;11.200;2023-02-20T02:47:45;98765.97;;;22.63;39.24
50057;BME280;36875;49.468;11.200;2023-02-20T02:50:16;98765.47;;;22.61;39.34
50057;BME280;36875;49.468;11.200;2023-02-20T02:52:44;98757.53;;;22.60;39.51
50057;BME280;36875;49.468;11.200;2023-02-20T02:55:16;98757.03;;;22.58;39.14
50057;BME280;36875;49.468;11.200;2023-02-20T02:57:42;98759.59;;;22.54;39.23
50057;BME280;36875;49.468;11.200;2023-02-20T03:00:10;98765.88;;;22.55;39.17
50057;BME280;36875;49.468;11.200;2023-02-20T03:02:40;98758.25;;;22.51;39.36
50057;BME280;36875;49.468;11.200;2023-02-20T03:05:11;98764.38;;;22.48;39.21
50057;BME280;36875;49.468;11.200;2023-02-20T03:07:40;98763.88;;;22.46;39.38
50057;BME280;36875;49.468;11.200;2023-02-20T03:10:15;98754.25;;;22.35;39.45
50057;BME280;36875;49.468;11.200;2023-02-20T03:12:47;98769.75;;;22.40;39.53
50057;BME280;36875;49.468;11.200;2023-02-20T03:15:20;98770.69;;;22.35;39.65
50057;BME280;36875;49.468;11.200;2023-02-20T03:18:10;98768.25;;;22.33;39.40
50057;BME280;36875;49.468;11.200;2023-02-20T03:20:40;98773.53;;;22.30;39.37
50057;BME280;36875;49.468;11.200;2023-02-20T03:23:09;98777.69;;;22.27;39.70
50057;BME280;36875;49.468;11.200;2023-02-20T03:25:39;98772.53;;;22.26;39.52
50057;BME280;36875;49.468;11.200;2023-02-20T03:28:08;98780.19;;;22.24;39.60
50057;BME280;36875;49.468;11.200;2023-02-20T03:30:38;98787.41;;;22.20;39.75
50057;BME280;36875;49.468;11.200;2023-02-20T03:33:06;98792.38;;;22.18;39.80
50057;BME280;36875;49.468;11.200;2023-02-20T03:35:54;98772.06;;;22.05;39.56
50057;BME280;36875;49.468;11.200;2023-02-20T03:38:40;98791.66;;;22.12;39.54
50057;BME280;36875;49.468;11.200;2023-02-20T03:41:29;98786.19;;;22.12;39.77
50057;BME280;36875;49.468;11.200;2023-02-20T03:44:17;98782.22;;;22.04;39.73
50057;BME280;36875;49.468;11.200;2023-02-20T03:46:46;98783.84;;;22.05;39.79
50057;BME280;36875;49.468;11.200;2023-02-20T03:49:17;98784.16;;;22.04;39.77
50057;BME280;36875;49.468;11.200;2023-02-20T03:51:44;98784.47;;;22.02;39.86
50057;BME280;36875;49.468;11.200;2023-02-20T03:54:10;98761.91;;;21.91;39.84
50057;BME280;36875;49.468;11.200;2023-02-20T03:56:43;98769.72;;;21.98;39.85
50057;BME280;36875;49.468;11.200;2023-02-20T03:59:19;98771.44;;;21.94;39.61
50057;BME280;36875;49.468;11.200;2023-02-20T04:01:49;98761.22;;;21.86;39.63
50057;BME280;36875;49.468;11.200;2023-02-20T04:04:20;98775.91;;;21.90;39.85
50057;BME280;36875;49.468;11.200;2023-02-20T04:06:49;98775.91;;;21.90;39.65
50057;BME280;36875;49.468;11.200;2023-02-20T04:09:19;98784.44;;;21.88;39.89
50057;BME280;36875;49.468;11.200;2023-02-20T04:11:50;98784.84;;;21.82;39.56
50057;BME280;36875;49.468;11.200;2023-02-20T04:14:20;98781.78;;;21.83;39.79
50057;BME280;36875;49.468;11.200;2023-02-20T04:16:47;98790.34;;;21.82;39.62
50057;BME280;36875;49.468;11.200;2023-02-20T04:19:14;98787.88;;;21.80;39.78
50057;BME280;36875;49.468;11.200;2023-02-20T04:21:42;98788.19;;;21.79;39.80
50057;BME280;36875;49.468;11.200;2023-02-20T04:24:12;98778.94;;;21.74;39.57
50057;BME280;36875;49.468;11.200;2023-02-20T04:26:44;98777.81;;;21.75;40.06
50057;BME280;36875;49.468;11.200;2023-02-20T04:29:11;98781.16;;;21.72;39.77
50057;BME280;36875;49.468;11.200;2023-02-20T04:31:37;98777.31;;;21.73;39.68
50057;BME280;36875;49.468;11.200;2023-02-20T04:34:02;98771.31;;;21.71;39.81
50057;BME280;36875;49.468;11.200;2023-02-20T04:36:28;98767.78;;;21.71;40.07
50057;BME280;36875;49.468;11.200;2023-02-20T04:38:54;98765.84;;;21.71;39.67
50057;BME280;36875;49.468;11.200;2023-02-20T04:41:19;98771.63;;;21.70;39.74
50057;BME280;36875;49.468;11.200;2023-02-20T04:43:45;98769.81;;;21.65;39.63
50057;BME280;36875;49.468;11.200;2023-02-20T04:46:13;98769.81;;;21.65;39.93
50057;BME280;36875;49.468;11.200;2023-02-20T04:48:38;98772.84;;;21.64;40.20
50057;BME280;36875;49.468;11.200;2023-02-20T04:51:04;98772.63;;;21.60;39.94
50057;BME280;36875;49.468;11.200;2023-02-20T04:53:30;98778.09;;;21.60;39.96
50057;BME280;36875;49.468;11.200;2023-02-20T04:55:56;98776.47;;;21.59;39.59
50057;BME280;36875;49.468;11.200;2023-02-20T04:58:21;98789.66;;;21.57;39.78
50057;BME280;36875;49.468;11.200;2023-02-20T05:00:47;98780.63;;;21.56;39.60
50057;BME280;36875;49.468;11.200;2023-02-20T05:03:14;98779.63;;;21.52;39.85
50057;BME280;36875;49.468;11.200;2023-02-20T05:05:39;98772.50;;;21.51;39.88
50057;BME280;36875;49.468;11.200;2023-02-20T05:08:06;98762.50;;;21.42;39.74
50057;BME280;36875;49.468;11.200;2023-02-20T05:10:33;98790.03;;;21.50;39.76
50057;BME280;36875;49.468;11.200;2023-02-20T05:12:58;98792.25;;;21.48;39.93
50057;BME280;36875;49.468;11.200;2023-02-20T05:15:25;98779.44;;;21.44;39.84
50057;BME280;36875;49.468;11.200;2023-02-20T05:17:50;98789.00;;;21.46;39.78
50057;BME280;36875;49.468;11.200;2023-02-20T05:20:18;98800.25;;;21.45;39.88
50057;BME280;36875;49.468;11.200;2023-02-20T05:22:44;98797.53;;;21.45;39.81
50057;BME280;36875;49.468;11.200;2023-02-20T05:25:10;98798.91;;;21.42;39.98
50057;BME280;36875;49.468;11.200;2023-02-20T05:27:36;98798.41;;;21.40;39.89
50057;BME280;36875;49.468;11.200;2023-02-20T05:30:02;98804.16;;;21.38;39.94
50057;BME280;36875;49.468;11.200;2023-02-20T05:32:29;98812.38;;;21.38;40.16
50057;BME280;36875;49.468;11.200;2023-02-20T05:34:55;98804.25;;;21.33;40.26
50057;BME280;36875;49.468;11.200;2023-02-20T05:37:24;98811.94;;;21.31;39.77
50057;BME280;36875;49.468;11.200;2023-02-20T05:39:50;98813.88;;;21.31;39.91
50057;BME280;36875;49.468;11.200;2023-02-20T05:42:16;98819.66;;;21.29;39.89
50057;BME280;36875;49.468;11.200;2023-02-20T05:44:41;98818.63;;;21.25;40.12
50057;BME280;36875;49.468;11.200;2023-02-20T05:47:07;98811.81;;;21.23;39.97
50057;BME280;36875;49.468;11.200;2023-02-20T05:49:33;98820.00;;;21.23;40.06
50057;BME280;36875;49.468;11.200;2023-02-20T05:51:59;98825.50;;;21.23;39.80
50057;BME280;36875;49.468;11.200;2023-02-20T05:54:26;98832.38;;;21.20;39.98
50057;BME280;36875;49.468;11.200;2023-02-20T05:56:52;98835.41;;;21.18;40.26
50057;BME280;36875;49.468;11.200;2023-02-20T05:59:20;98834.91;;;21.16;40.13
50057;BME280;36875;49.468;11.200;2023-02-20T06:01:46;98835.69;;;21.17;40.44
50057;BME280;36875;49.468;11.200;2023-02-20T06:04:12;98831.19;;;21.07;40.08
50057;BME280;36875;49.468;11.200;2023-02-20T06:06:39;98830.31;;;21.12;40.47
50057;BME280;36875;49.468;11.200;2023-02-20T06:09:05;98828.97;;;21.09;40.18
50057;BME280;36875;49.468;11.200;2023-02-20T06:11:38;98835.88;;;21.07;40.30
50057;BME280;36875;49.468;11.200;2023-02-20T06:14:04;98829.56;;;21.06;40.30
50057;BME280;36875;49.468;11.200;2023-02-20T06:16:31;98832.63;;;21.05;40.51
50057;BME280;36875;49.468;11.200;2023-02-20T06:18:57;98833.13;;;21.07;40.55
50057;BME280;36875;49.468;11.200;2023-02-20T06:21:24;98835.25;;;21.10;40.60
50057;BME280;36875;49.468;11.200;2023-02-20T06:23:53;98830.97;;;21.23;40.72
50057;BME280;36875;49.468;11.200;2023-02-20T06:26:19;98829.50;;;21.30;40.38
50057;BME280;36875;49.468;11.200;2023-02-20T06:28:46;98829.31;;;21.41;40.22
50057;BME280;36875;49.468;11.200;2023-02-20T06:31:20;98834.00;;;21.40;39.78
50057;BME280;36875;49.468;11.200;2023-02-20T06:33:46;98840.88;;;21.37;40.06
50057;BME280;36875;49.468;11.200;2023-02-20T06:36:18;98853.75;;;21.37;40.05
50057;BME280;36875;49.468;11.200;2023-02-20T06:38:44;98846.94;;;21.34;40.38
50057;BME280;36875;49.468;11.200;2023-02-20T06:41:10;98847.41;;;21.42;40.02
50057;BME280;36875;49.468;11.200;2023-02-20T06:43:35;98850.13;;;21.42;40.38
50057;BME280;36875;49.468;11.200;2023-02-20T06:46:02;98841.09;;;21.41;40.74
50057;BME280;36875;49.468;11.200;2023-02-20T06:48:28;98836.94;;;21.44;40.57
50057;BME280;36875;49.468;11.200;2023-02-20T06:50:53;98841.78;;;21.52;40.33
50057;BME280;36875;49.468;11.200;2023-02-20T06:53:20;98835.22;;;21.67;40.23
50057;BME280;36875;49.468;11.200;2023-02-20T06:55:45;98832.03;;;21.79;39.88
50057;BME280;36875;49.468;11.200;2023-02-20T06:58:11;98838.16;;;22.03;39.28
50057;BME280;36875;49.468;11.200;2023-02-20T07:00:36;98846.84;;;22.38;38.74
50057;BME280;36875;49.468;11.200;2023-02-20T07:03:03;98843.69;;;22.59;38.54
50057;BME280;36875;49.468;11.200;2023-02-20T07:05:29;98835.34;;;22.64;38.59
50057;BME280;36875;49.468;11.200;2023-02-20T07:07:54;98840.19;;;22.95;37.92
50057;BME280;36875;49.468;11.200;2023-02-20T07:10:20;98843.56;;;23.05;38.02
50057;BME280;36875;49.468;11.200;2023-02-20T07:12:45;98848.81;;;23.16;37.74
50057;BME280;36875;49.468;11.200;2023-02-20T07:15:11;98832.97;;;23.58;36.87
50057;BME280;36875;49.468;11.200;2023-02-20T07:17:37;98832.69;;;23.82;36.25
50057;BME280;36875;49.468;11.200;2023-02-20T07:20:04;98831.63;;;23.92;36.09
50057;BME280;36875;49.468;11.200;2023-02-20T07:22:30;98815.66;;;24.02;36.35
50057;BME280;36875;49.468;11.200;2023-02-20T07:24:56;98816.97;;;24.05;36.00
50057;BME280;36875;49.468;11.200;2023-02-20T07:27:21;98817.38;;;24.21;35.75
50057;BME280;36875;49.468;11.200;2023-02-20T07:29:48;98813.97;;;24.24;35.85
50057;BME280;36875;49.468;11.200;2023-02-20T07:32:15;98824.03;;;24.29;35.60
50057;BME280;36875;49.468;11.200;2023-02-20T07:34:44;98826.91;;;24.23;35.91
50057;BME280;36875;49.468;11.200;2023-02-20T07:37:12;98824.66;;;23.94;36.38
50057;BME280;36875;49.468;11.200;2023-02-20T07:39:37;98825.47;;;23.95;36.43
50057;BME280;36875;49.468;11.200;2023-02-20T07:42:03;98823.69;;;23.90;36.66
50057;BME280;36875;49.468;11.200;2023-02-20T07:44:29;98823.19;;;23.65;37.06
50057;BME280;36875;49.468;11.200;2023-02-20T07:46:54;98832.06;;;23.62;37.17
50057;BME280;36875;49.468;11.200;2023-02-20T07:49:22;98852.38;;;23.53;37.36
50057;BME280;36875;49.468;11.200;2023-02-20T07:51:47;98854.19;;;23.43;37.49
50057;BME280;36875;49.468;11.200;2023-02-20T07:54:14;98849.28;;;23.54;37.42
50057;BME280;36875;49.468;11.200;2023-02-20T07:56:40;98844.91;;;23.53;37.41
50057;BME280;36875;49.468;11.200;2023-02-20T07:59:05;98829.94;;;23.37;37.69
50057;BME280;36875;49.468;11.200;2023-02-20T08:01:31;98825.44;;;23.41;37.69
50057;BME280;36875;49.468;11.200;2023-02-20T08:03:56;98829.66;;;23.47;37.71
50057;BME280;36875;49.468;11.200;2023-02-20T08:06:22;98832.41;;;23.47;37.73
50057;BME280;36875;49.468;11.200;2023-02-20T08:08:47;98815.69;;;23.57;37.59
50057;BME280;36875;49.468;11.200;2023-02-20T08:11:16;98816.69;;;23.61;37.53
50057;BME280;36875;49.468;11.200;2023-02-20T08:13:42;98823.88;;;23.48;37.79
50057;BME280;36875;49.468;11.200;2023-02-20T08:16:08;98825.34;;;23.32;38.04
50057;BME280;36875;49.468;11.200;2023-02-20T08:18:33;98818.94;;;23.14;38.52
50057;BME280;36875;49.468;11.200;2023-02-20T08:20:59;98816.19;;;23.14;38.34
50057;BME280;36875;49.468;11.200;2023-02-20T08:23:24;98824.66;;;23.26;38.20
50057;BME280;36875;49.468;11.200;2023-02-20T08:25:50;98828.47;;;23.17;38.28
50057;BME280;36875;49.468;11.200;2023-02-20T08:28:18;98836.22;;;23.15;38.39
50057;BME280;36875;49.468;11.200;2023-02-20T08:30:43;98833.16;;;23.02;38.40
50057;BME280;36875;49.468;11.200;2023-02-20T08:33:09;98821.97;;;22.99;38.32
50057;BME280;36875;49.468;11.200;2023-02-20T08:35:35;98821.38;;;23.02;38.52
50057;BME280;36875;49.468;11.200;2023-02-20T08:38:00;98823.63;;;23.00;38.19
50057;BME280;36875;49.468;11.200;2023-02-20T08:40:26;98817.94;;;22.96;38.53
50057;BME280;36875;49.468;11.200;2023-02-20T08:42:51;98804.81;;;22.93;38.63
50057;BME280;36875;49.468;11.200;2023-02-20T08:45:19;98811.06;;;22.85;38.73
50057;BME280;36875;49.468;11.200;2023-02-20T08:47:44;98800.28;;;22.88;38.71
50057;BME280;36875;49.468;11.200;2023-02-20T08:50:10;98794.97;;;22.92;38.85
50057;BME280;36875;49.468;11.200;2023-02-20T08:52:35;98794.97;;;22.92;38.77
50057;BME280;36875;49.468;11.200;2023-02-20T08:55:01;98794.16;;;22.91;38.41
50057;BME280;36875;49.468;11.200;2023-02-20T08:57:26;98793.84;;;22.93;38.30
50057;BME280;36875;49.468;11.200;2023-02-20T08:59:53;98790.41;;;22.87;38.55
50057;BME280;36875;49.468;11.200;2023-02-20T09:02:22;98782.03;;;22.70;38.61
50057;BME280;36875;49.468;11.200;2023-02-20T09:04:53;98790.25;;;22.70;38.49
50057;BME280;36875;49.468;11.200;2023-02-20T09:07:19;98778.75;;;22.68;38.74
50057;BME280;36875;49.468;11.200;2023-02-20T09:09:45;98781.88;;;22.75;38.43
50057;BME280;36875;49.468;11.200;2023-02-20T09:12:11;98768.84;;;22.81;38.40
50057;BME280;36875;49.468;11.200;2023-02-20T09:14:36;98771.78;;;22.84;38.37
50057;BME280;36875;49.468;11.200;2023-02-20T09:17:02;98771.78;;;22.84;38.52
50057;BME280;36875;49.468;11.200;2023-02-20T09:19:30;98768.94;;;22.89;38.38
50057;BME280;36875;49.468;11.200;2023-02-20T09:21:56;98773.31;;;22.90;38.35
50057;BME280;36875;49.468;11.200;2023-02-20T09:24:22;98762.22;;;22.96;38.12
50057;BME280;36875;49.468;11.200;2023-02-20T09:26:47;98756.22;;;22.94;38.13
50057;BME280;36875;49.468;11.200;2023-02-20T09:29:13;98768.34;;;22.93;38.29
50057;BME280;36875;49.468;11.200;2023-02-20T09:31:38;98762.41;;;22.99;38.25
50057;BME280;36875;49.468;11.200;2023-02-20T09:34:04;98753.16;;;22.95;37.99
50057;BME280;36875;49.468;11.200;2023-02-20T09:36:31;98749.13;;;22.93;38.32
50057;BME280;36875;49.468;11.200;2023-02-20T09:38:56;98747.19;;;22.93;38.30
50057;BME280;36875;49.468;11.200;2023-02-20T09:41:32;98745.25;;;22.94;38.25
50057;BME280;36875;49.468;11.200;2023-02-20T09:44:04;98733.94;;;22.95;38.15
50057;BME280;36875;49.468;11.200;2023-02-20T09:46:31;98740.28;;;22.96;38.19
50057;BME280;36875;49.468;11.200;2023-02-20T09:49:01;98730.72;;;22.93;38.14
50057;BME280;36875;49.468;11.200;2023-02-20T09:51:32;98725.22;;;22.93;38.17
50057;BME280;36875;49.468;11.200;2023-02-20T09:54:02;98722.28;;;22.89;38.32
50057;BME280;36875;49.468;11.200;2023-02-20T09:56:32;98715.19;;;22.88;38.38
50057;BME280;36875;49.468;11.200;2023-02-20T09:59:04;98714.06;;;22.89;38.37
50057;BME280;36875;49.468;11.200;2023-02-20T10:01:31;98713.50;;;23.01;38.02
50057;BME280;36875;49.468;11.200;2023-02-20T10:04:01;98706.47;;;23.09;38.04
50057;BME280;36875;49.468;11.200;2023-02-20T10:06:33;98702.91;;;23.31;37.55
50057;BME280;36875;49.468;11.200;2023-02-20T10:08:59;98693.91;;;23.39;37.38
50057;BME280;36875;49.468;11.200;2023-02-20T10:11:39;98697.63;;;23.43;37.58
50057;BME280;36875;49.468;11.200;2023-02-20T10:14:20;98690.16;;;23.66;36.69
50057;BME280;36875;49.468;11.200;2023-02-20T10:16:53;98679.44;;;23.96;36.38
50057;BME280;36875;49.468;11.200;2023-02-20T10:19:28;98679.66;;;24.09;35.93
50057;BME280;36875;49.468;11.200;2023-02-20T10:22:03;98682.00;;;24.50;35.33
50057;BME280;36875;49.468;11.200;2023-02-20T10:24:42;98680.56;;;24.70;34.97
50057;BME280;36875;49.468;11.200;2023-02-20T10:27:24;98689.78;;;24.92;34.79
50057;BME280;36875;49.468;11.200;2023-02-20T10:29:53;98683.78;;;24.98;34.43
50057;BME280;36875;49.468;11.200;2023-02-20T10:32:22;98682.81;;;25.03;34.53
50057;BME280;36875;49.468;11.200;2023-02-20T10:34:54;98676.63;;;25.32;33.75
50057;BME280;36875;49.468;11.200;2023-02-20T10:37:24;98679.34;;;25.50;33.80
50057;BME280;36875;49.468;11.200;2023-02-20T10:39:55;98671.25;;;25.83;33.28
50057;BME280;36875;49.468;11.200;2023-02-20T10:42:23;98668.31;;;25.88;33.00
50057;BME280;36875;49.468;11.200;2023-02-20T10:44:56;98656.91;;;25.99;33.04
50057;BME280;36875;49.468;11.200;2023-02-20T10:47:27;98660.56;;;26.11;32.39
50057;BME280;36875;49.468;11.200;2023-02-20T10:49:57;98650.88;;;26.26;32.50
50057;BME280;36875;49.468;11.200;2023-02-20T10:52:30;98653.50;;;26.23;32.52
50057;BME280;36875;49.468;11.200;2023-02-20T10:55:04;98649.81;;;25.89;32.74
50057;BME280;36875;49.468;11.200;2023-02-20T10:57:36;98656.28;;;25.93;32.65
50057;BME280;36875;49.468;11.200;2023-02-20T11:00:08;98646.94;;;25.76;33.06
50057;BME280;36875;49.468;11.200;2023-02-20T11:02:39;98650.00;;;25.84;33.03
50057;BME280;36875;49.468;11.200;2023-02-20T11:05:09;98641.38;;;25.85;33.01
50057;BME280;36875;49.468;11.200;2023-02-20T11:07:37;98643.63;;;25.92;33.25
50057;BME280;36875;49.468;11.200;2023-02-20T11:10:03;98632.03;;;25.77;33.24
50057;BME280;36875;49.468;11.200;2023-02-20T11:12:32;98628.72;;;25.84;33.44
50057;BME280;36875;49.468;11.200;2023-02-20T11:15:04;98630.88;;;25.78;33.30
50057;BME280;36875;49.468;11.200;2023-02-20T11:17:31;98634.34;;;25.67;33.87
50057;BME280;36875;49.468;11.200;2023-02-20T11:19:59;98616.88;;;25.63;33.58
50057;BME280;36875;49.468;11.200;2023-02-20T11:22:40;98607.25;;;25.69;33.54
50057;BME280;36875;49.468;11.200;2023-02-20T11:25:16;98618.03;;;25.53;33.86
50057;BME280;36875;49.468;11.200;2023-02-20T11:27:42;98609.97;;;25.48;33.91
50057;BME280;36875;49.468;11.200;2023-02-20T11:30:21;98604.78;;;25.46;34.09
50057;BME280;36875;49.468;11.200;2023-02-20T11:32:48;98598.06;;;25.56;34.12
50057;BME280;36875;49.468;11.200;2023-02-20T11:35:26;98591.78;;;25.55;33.54
50057;BME280;36875;49.468;11.200;2023-02-20T11:41:12;98570.25;;;25.40;34.04
50057;BME280;36875;49.468;11.200;2023-02-20T11:43:43;98581.19;;;25.28;34.59
50057;BME280;36875;49.468;11.200;2023-02-20T11:46:13;98571.97;;;25.24;34.31
50057;BME280;36875;49.468;11.200;2023-02-20T11:48:56;98570.19;;;25.28;34.53
50057;BME280;36875;49.468;11.200;2023-02-20T11:51:34;98570.88;;;25.07;34.80
50057;BME280;36875;49.468;11.200;2023-02-20T11:54:06;98563.03;;;25.18;34.43
50057;BME280;36875;49.468;11.200;2023-02-20T11:56:34;98559.97;;;25.19;34.59
50057;BME280;36875;49.468;11.200;2023-02-20T11:59:16;98556.13;;;25.03;34.91
50057;BME280;36875;49.468;11.200;2023-02-20T12:01:49;98561.13;;;25.10;34.55
50057;BME280;36875;49.468;11.200;2023-02-20T12:04:18;98554.69;;;25.06;34.74
50057;BME280;36875;49.468;11.200;2023-02-20T12:06:44;98552.75;;;24.97;34.90
50057;BME280;36875;49.468;11.200;2023-02-20T12:09:13;98540.63;;;24.90;34.64
50057;BME280;36875;49.468;11.200;2023-02-20T12:11:40;98549.19;;;24.97;34.77
50057;BME280;36875;49.468;11.200;2023-02-20T12:14:10;98541.09;;;25.00;34.49
50057;BME280;36875;49.468;11.200;2023-02-20T12:16:42;98528.25;;;25.13;34.42
50057;BME280;36875;49.468;11.200;2023-02-20T12:19:14;98522.41;;;25.15;35.09
50057;BME280;36875;49.468;11.200;2023-02-20T12:21:56;98514.69;;;25.38;34.78
50057;BME280;36875;49.468;11.200;2023-02-20T12:24:41;98518.00;;;25.52;34.64
50057;BME280;36875;49.468;11.200;2023-02-20T12:27:28;98512.41;;;25.70;34.74
50057;BME280;36875;49.468;11.200;2023-02-20T12:30:05;98498.41;;;25.75;34.58
50057;BME280;36875;49.468;11.200;2023-02-20T12:32:47;98500.56;;;25.90;33.90
50057;BME280;36875;49.468;11.200;2023-02-20T12:35:22;98508.00;;;25.99;34.12
50057;BME280;36875;49.468;11.200;2023-02-20T12:38:00;98494.25;;;26.11;34.01
50057;BME280;36875;49.468;11.200;2023-02-20T12:40:38;98491.78;;;26.18;33.44
50057;BME280;36875;49.468;11.200;2023-02-20T12:43:21;98488.16;;;26.05;33.76
50057;BME280;36875;49.468;11.200;2023-02-20T12:45:59;98479.34;;;26.12;33.91
50057;BME280;36875;49.468;11.200;2023-02-20T12:48:38;98468.00;;;26.26;33.06
50057;BME280;36875;49.468;11.200;2023-02-20T12:51:16;98463.03;;;26.19;33.26
50057;BME280;36875;49.468;11.200;2023-02-20T12:53:52;98470.28;;;26.24;32.64
50057;BME280;36875;49.468;11.200;2023-02-20T12:56:31;98465.56;;;26.24;32.45
50057;BME280;36875;49.468;11.200;2023-02-20T12:59:08;98466.16;;;26.30;32.59
50057;BME280;36875;49.468;11.200;2023-02-20T13:01:40;98452.00;;;26.19;32.93
50057;BME280;36875;49.468;11.200;2023-02-20T13:04:18;98462.09;;;26.15;32.81